createdAt,value
2018-04-24T00:00:59.740Z,68.00
2018-04-24T00:01:59.726Z,68.86
2018-04-24T00:02:59.725Z,69.24
2018-04-24T00:03:59.699Z,68.86
2018-04-24T00:04:59.682Z,69.11
2018-04-24T00:05:59.674Z,68.92
2018-04-24T00:06:59.654Z,69.11
2018-04-24T00:07:59.638Z,69.59
2018-04-24T00:08:59.628Z,69.59
2018-04-24T00:09:59.611Z,69.68
2018-04-24T00:10:59.596Z,69.49
2018-04-24T00:11:59.729Z,69.49
2018-04-24T00:12:59.566Z,69.68
2018-04-24T00:13:59.553Z,70.16
2018-04-24T00:14:59.536Z,70.07
2018-04-24T00:15:59.521Z,68.73
2018-04-24T00:16:59.507Z,69.59
2018-04-24T00:17:59.495Z,69.78
2018-04-24T00:18:59.480Z,68.92
2018-04-24T00:19:59.462Z,69.49
2018-04-24T00:20:59.450Z,70.45
2018-04-24T00:21:59.433Z,70.26
2018-04-24T00:22:59.418Z,71.21
2018-04-24T00:23:59.405Z,71.50
2018-04-24T00:24:59.389Z,71.31
2018-04-24T00:25:59.435Z,70.51
2018-04-24T00:26:59.359Z,70.61
2018-04-24T00:27:59.349Z,71.27
2018-04-24T00:28:59.330Z,71.98
2018-04-24T00:29:59.316Z,72.36
2018-04-24T00:30:59.305Z,71.18
2018-04-24T00:31:59.284Z,72.07
2018-04-24T00:32:59.270Z,71.66
2018-04-24T00:33:59.256Z,72.36
2018-04-24T00:34:59.243Z,71.94
2018-04-24T00:35:59.225Z,72.42
2018-04-24T00:36:59.209Z,72.07
2018-04-24T00:37:59.199Z,71.18
2018-04-24T00:38:59.178Z,71.37
2018-04-24T00:39:59.164Z,71.75
2018-04-24T00:40:59.151Z,72.61
2018-04-24T00:41:59.138Z,72.42
2018-04-24T00:42:59.121Z,72.99
2018-04-24T00:43:59.109Z,73.28
2018-04-24T00:44:59.090Z,72.99
2018-04-24T00:45:59.075Z,73.85
2018-04-24T00:46:59.061Z,74.23
2018-04-24T00:47:59.044Z,73.47
2018-04-24T00:48:59.031Z,73.18
2018-04-24T00:49:59.027Z,73.94
2018-04-24T00:50:59.001Z,73.37
2018-04-24T00:51:58.985Z,73.56
2018-04-24T00:52:58.969Z,74.13
2018-04-24T00:53:58.953Z,74.52
2018-04-24T00:54:58.938Z,74.23
2018-04-24T00:55:58.922Z,73.94
2018-04-24T00:56:58.909Z,74.42
2018-04-24T00:57:58.891Z,74.80
2018-04-24T00:58:58.881Z,74.04
2018-04-24T00:59:58.862Z,74.04
2018-04-24T01:00:58.917Z,73.47
2018-04-24T01:01:58.835Z,73.75
2018-04-24T01:02:58.821Z,73.28
2018-04-24T01:03:58.799Z,74.23
2018-04-24T01:04:58.788Z,74.52
2018-04-24T01:05:58.770Z,74.90
2018-04-24T01:06:58.756Z,74.80
2018-04-24T01:07:58.738Z,74.13
2018-04-24T01:08:58.726Z,73.66
2018-04-24T01:09:58.709Z,73.37
2018-04-24T01:10:58.699Z,73.94
2018-04-24T01:11:58.678Z,73.28
2018-04-24T01:12:58.663Z,74.13
2018-04-24T01:13:58.647Z,73.66
2018-04-24T01:14:58.632Z,73.47
2018-04-24T01:15:58.618Z,73.66
2018-04-24T01:16:58.601Z,74.04
2018-04-24T01:17:58.590Z,73.75
2018-04-24T01:18:58.570Z,73.28
2018-04-24T01:19:58.555Z,74.96
2018-04-24T01:20:58.541Z,74.48
2018-04-24T01:21:58.524Z,74.77
2018-04-24T01:22:58.511Z,74.67
2018-04-24T01:23:58.497Z,75.24
2018-04-24T01:24:58.479Z,75.62
2018-04-24T01:25:58.463Z,74.86
2018-04-24T01:26:58.450Z,74.29
2018-04-24T01:27:58.436Z,74.29
2018-04-24T01:28:58.416Z,74.10
2018-04-24T01:29:58.409Z,74.96
2018-04-24T01:30:58.386Z,74.48
2018-04-24T01:31:58.371Z,75.72
2018-04-24T01:32:58.409Z,75.05
2018-04-24T01:33:58.338Z,74.96
2018-04-24T01:34:58.325Z,74.96
2018-04-24T01:35:58.307Z,74.77
2018-04-24T01:36:58.293Z,75.34
2018-04-24T01:37:58.276Z,74.48
2018-04-24T01:38:58.264Z,75.24
2018-04-24T01:39:58.245Z,75.15
2018-04-24T01:40:58.229Z,76.29
2018-04-24T01:41:58.214Z,76.67
2018-04-24T01:42:58.198Z,75.43
2018-04-24T01:43:58.192Z,76.01
2018-04-24T01:44:58.166Z,75.81
2018-04-24T01:45:58.156Z,75.53
2018-04-24T01:46:58.135Z,75.53
2018-04-24T01:47:58.120Z,75.24
2018-04-24T01:48:58.103Z,74.96
2018-04-24T01:49:58.090Z,75.62
2018-04-24T01:50:58.074Z,76.39
2018-04-24T01:51:58.059Z,76.44
2018-04-24T01:52:58.041Z,76.06
2018-04-24T01:53:58.023Z,76.44
2018-04-24T01:54:58.009Z,76.25
2018-04-24T01:55:57.993Z,75.96
2018-04-24T01:56:57.979Z,75.96
2018-04-24T01:57:57.961Z,76.16
2018-04-24T01:58:57.945Z,76.44
2018-04-24T01:59:57.930Z,75.78
2018-04-24T02:00:57.913Z,76.44
2018-04-24T02:01:57.899Z,76.54
2018-04-24T02:02:57.883Z,76.06
2018-04-24T02:03:57.869Z,76.16
2018-04-24T02:04:57.851Z,76.73
2018-04-24T02:05:57.835Z,77.59
2018-04-24T02:06:57.819Z,77.01
2018-04-24T02:07:57.803Z,75.96
2018-04-24T02:08:57.787Z,75.49
2018-04-24T02:09:57.774Z,76.82
2018-04-24T02:10:57.758Z,76.82
2018-04-24T02:11:57.737Z,77.59
2018-04-24T02:12:57.730Z,76.82
2018-04-24T02:13:57.708Z,76.82
2018-04-24T02:14:57.690Z,78.25
2018-04-24T02:15:57.674Z,77.01
2018-04-24T02:16:57.659Z,77.20
2018-04-24T02:17:57.649Z,76.82
2018-04-24T02:18:57.628Z,76.54
2018-04-24T02:19:57.609Z,76.44
2018-04-24T02:20:57.597Z,77.49
2018-04-24T02:21:57.578Z,77.87
2018-04-24T02:22:57.642Z,78.03
2018-04-24T02:23:57.551Z,77.49
2018-04-24T02:24:57.570Z,76.98
2018-04-24T02:25:57.520Z,77.64
2018-04-24T02:26:57.499Z,78.31
2018-04-24T02:27:57.482Z,78.69
2018-04-24T02:28:57.466Z,77.74
2018-04-24T02:29:57.452Z,78.22
2018-04-24T02:30:57.441Z,79.07
2018-04-24T02:31:57.416Z,79.55
2018-04-24T02:32:57.403Z,79.17
2018-04-24T02:33:57.397Z,80.12
2018-04-24T02:34:57.368Z,79.17
2018-04-24T02:35:57.357Z,78.31
2018-04-24T02:36:57.335Z,77.74
2018-04-24T02:37:57.319Z,78.12
2018-04-24T02:38:57.303Z,78.22
2018-04-24T02:39:57.287Z,79.74
2018-04-24T02:40:57.273Z,79.74
2018-04-24T02:41:57.256Z,79.83
2018-04-24T02:42:57.240Z,79.64
2018-04-24T02:43:57.226Z,80.69
2018-04-24T02:44:57.206Z,80.12
2018-04-24T02:45:57.190Z,80.60
2018-04-24T02:46:57.174Z,79.93
2018-04-24T02:47:57.156Z,79.83
2018-04-24T02:48:57.140Z,80.12
2018-04-24T02:49:57.124Z,80.41
2018-04-24T02:50:57.111Z,80.79
2018-04-24T02:51:57.091Z,79.93
2018-04-24T02:52:57.073Z,80.31
2018-04-24T02:53:57.065Z,81.36
2018-04-24T02:54:57.042Z,80.60
2018-04-24T02:55:57.024Z,79.74
2018-04-24T02:56:57.015Z,79.93
2018-04-24T02:57:56.993Z,80.02
2018-04-24T02:58:56.979Z,80.41
2018-04-24T02:59:56.961Z,80.02
2018-04-24T03:00:56.942Z,79.55
2018-04-24T03:01:56.932Z,80.31
2018-04-24T03:02:56.914Z,80.50
2018-04-24T03:03:56.895Z,80.12
2018-04-24T03:04:56.877Z,79.46
2018-04-24T03:05:56.875Z,80.02
2018-04-24T03:06:56.855Z,79.64
2018-04-24T03:07:56.832Z,79.46
2018-04-24T03:08:56.814Z,80.12
2018-04-24T03:09:56.804Z,79.74
2018-04-24T03:10:56.788Z,79.46
2018-04-24T03:11:56.903Z,79.83
2018-04-24T03:12:56.747Z,78.98
2018-04-24T03:13:56.727Z,78.88
2018-04-24T03:14:56.712Z,79.64
2018-04-24T03:15:56.700Z,79.93
2018-04-24T03:16:56.683Z,80.41
2018-04-24T03:17:56.663Z,79.74
2018-04-24T03:18:56.648Z,79.80
2018-04-24T03:19:56.633Z,81.36
2018-04-24T03:20:56.614Z,81.13
2018-04-24T03:21:56.600Z,81.60
2018-04-24T03:22:56.581Z,81.98
2018-04-24T03:23:56.562Z,81.98
2018-04-24T03:24:56.545Z,81.41
2018-04-24T03:25:56.531Z,81.60
2018-04-24T03:26:56.513Z,82.27
2018-04-24T03:27:56.496Z,80.84
2018-04-24T03:28:56.481Z,81.51
2018-04-24T03:29:56.469Z,82.37
2018-04-24T03:30:56.454Z,82.18
2018-04-24T03:31:56.434Z,81.98
2018-04-24T03:32:56.414Z,83.03
2018-04-24T03:33:56.396Z,83.47
2018-04-24T03:34:56.381Z,83.65
2018-04-24T03:35:56.368Z,83.47
2018-04-24T03:36:56.345Z,83.28
2018-04-24T03:37:56.338Z,83.65
2018-04-24T03:38:56.319Z,83.56
2018-04-24T03:39:56.297Z,83.94
2018-04-24T03:40:56.279Z,84.42
2018-04-24T03:41:56.263Z,84.52
2018-04-24T03:42:56.251Z,84.61
2018-04-24T03:43:56.229Z,84.61
2018-04-24T03:44:56.212Z,84.61
2018-04-24T03:45:56.196Z,84.80
2018-04-24T03:46:56.178Z,84.61
2018-04-24T03:47:56.160Z,84.52
2018-04-24T03:48:56.143Z,84.33
2018-04-24T03:49:56.128Z,84.33
2018-04-24T03:50:56.111Z,84.33
2018-04-24T03:51:56.095Z,84.13
2018-04-24T03:52:56.078Z,84.33
2018-04-24T03:53:56.065Z,83.75
2018-04-24T03:54:56.046Z,83.18
2018-04-24T03:55:56.030Z,83.85
2018-04-24T03:56:56.009Z,84.61
2018-04-24T03:57:55.992Z,83.47
2018-04-24T03:58:55.978Z,83.51
2018-04-24T03:59:55.972Z,82.37
2018-04-24T04:00:55.943Z,82.56
2018-04-24T04:01:55.923Z,83.03
2018-04-24T04:02:55.906Z,82.37
2018-04-24T04:03:55.892Z,82.32
2018-04-24T04:04:55.874Z,83.13
2018-04-24T04:05:55.858Z,83.47
2018-04-24T04:06:55.839Z,83.47
2018-04-24T04:07:55.831Z,82.99
2018-04-24T04:08:55.808Z,82.80
2018-04-24T04:09:55.789Z,82.37
2018-04-24T04:10:55.771Z,82.08
2018-04-24T04:11:55.759Z,81.89
2018-04-24T04:12:55.740Z,81.95
2018-04-24T04:13:55.722Z,82.23
2018-04-24T04:14:55.703Z,82.23
2018-04-24T04:15:55.774Z,83.28
2018-04-24T04:16:55.671Z,83.18
2018-04-24T04:17:55.653Z,83.28
2018-04-24T04:18:55.639Z,83.56
2018-04-24T04:19:55.618Z,83.13
2018-04-24T04:20:55.600Z,82.90
2018-04-24T04:21:55.582Z,82.90
2018-04-24T04:22:55.568Z,82.70
2018-04-24T04:24:10.117Z,82.56
2018-04-24T04:25:10.077Z,82.27
2018-04-24T04:26:10.059Z,82.46
2018-04-24T04:27:10.045Z,82.18
2018-04-24T04:28:10.019Z,82.37
2018-04-24T04:29:10.008Z,83.32
2018-04-24T04:30:09.986Z,82.84
2018-04-24T04:31:09.972Z,82.56
2018-04-24T04:32:09.950Z,83.32
2018-04-24T04:33:09.934Z,83.32
2018-04-24T04:34:09.926Z,83.32
2018-04-24T04:35:09.902Z,83.32
2018-04-24T04:36:09.887Z,83.41
2018-04-24T04:37:09.867Z,83.32
2018-04-24T04:38:09.854Z,83.13
2018-04-24T04:39:09.833Z,83.22
2018-04-24T04:40:09.818Z,83.51
2018-04-24T04:41:09.849Z,83.13
2018-04-24T04:42:09.782Z,83.32
2018-04-24T04:43:09.767Z,82.75
2018-04-24T04:44:09.748Z,83.41
2018-04-24T04:45:09.733Z,83.51
2018-04-24T04:46:09.715Z,83.70
2018-04-24T04:47:09.702Z,83.32
2018-04-24T04:48:09.682Z,82.93
2018-04-24T04:49:09.667Z,83.51
2018-04-24T04:50:09.651Z,83.70
2018-04-24T04:51:09.630Z,84.69
2018-04-24T04:52:09.616Z,84.50
2018-04-24T04:53:09.645Z,84.41
2018-04-24T04:54:09.585Z,84.31
2018-04-24T04:55:09.566Z,83.93
2018-04-24T04:56:09.598Z,83.26
2018-04-24T04:57:09.529Z,83.55
2018-04-24T04:58:09.515Z,84.22
2018-04-24T04:59:09.497Z,83.84
2018-04-24T05:00:09.479Z,83.36
2018-04-24T05:01:09.462Z,83.26
2018-04-24T05:02:09.525Z,83.65
2018-04-24T05:03:09.433Z,83.55
2018-04-24T05:04:09.414Z,83.17
2018-04-24T05:05:09.446Z,83.36
2018-04-24T05:06:09.380Z,84.22
2018-04-24T05:07:09.365Z,83.74
2018-04-24T05:08:09.357Z,83.97
2018-04-24T05:09:09.335Z,83.74
2018-04-24T05:10:09.319Z,84.36
2018-04-24T05:11:09.298Z,83.78
2018-04-24T05:12:09.341Z,84.16
2018-04-24T05:13:09.264Z,83.59
2018-04-24T05:14:09.248Z,83.59
2018-04-24T05:15:09.236Z,82.92
2018-04-24T05:16:09.220Z,83.21
2018-04-24T05:17:09.202Z,83.02
2018-04-24T05:18:09.184Z,83.69
2018-04-24T05:19:09.173Z,83.12
2018-04-24T05:20:09.241Z,83.40
2018-04-24T05:21:09.134Z,83.31
2018-04-24T05:22:09.119Z,82.54
2018-04-24T05:23:09.103Z,82.49
2018-04-24T05:24:09.092Z,82.49
2018-04-24T05:25:09.075Z,82.11
2018-04-24T05:26:09.053Z,83.16
2018-04-24T05:27:09.040Z,82.49
2018-04-24T05:28:09.022Z,82.30
2018-04-24T05:29:09.016Z,81.63
2018-04-24T05:30:08.991Z,82.20
2018-04-24T05:31:08.980Z,82.40
2018-04-24T05:32:08.960Z,81.63
2018-04-24T05:33:08.943Z,81.44
2018-04-24T05:34:08.925Z,81.44
2018-04-24T05:35:08.912Z,81.25
2018-04-24T05:36:08.902Z,81.06
2018-04-24T05:37:08.888Z,81.35
2018-04-24T05:38:08.865Z,81.35
2018-04-24T05:39:08.849Z,81.15
2018-04-24T05:40:08.830Z,81.06
2018-04-24T05:41:08.818Z,80.87
2018-04-24T05:42:08.800Z,81.06
2018-04-24T05:43:08.785Z,80.53
2018-04-24T05:44:08.769Z,80.43
2018-04-24T05:45:08.751Z,80.33
2018-04-24T05:46:08.737Z,80.62
2018-04-24T05:47:08.721Z,80.33
2018-04-24T05:48:08.705Z,79.86
2018-04-24T05:49:08.689Z,80.24
2018-04-24T05:50:08.676Z,80.05
2018-04-24T05:51:08.662Z,79.77
2018-04-24T05:52:08.644Z,79.19
2018-04-24T05:53:08.686Z,79.10
2018-04-24T05:54:08.621Z,78.81
2018-04-24T05:55:08.598Z,78.72
2018-04-24T05:56:08.584Z,78.28
2018-04-24T05:57:08.566Z,78.72
2018-04-24T05:58:08.553Z,79.10
2018-04-24T05:59:08.534Z,78.81
2018-04-24T06:00:08.518Z,79.23
2018-04-24T06:01:08.503Z,78.47
2018-04-24T06:02:08.492Z,78.47
2018-04-24T06:03:08.491Z,77.70
2018-04-24T06:04:08.456Z,77.32
2018-04-24T06:05:08.457Z,77.51
2018-04-24T06:06:08.427Z,77.03
2018-04-24T06:07:08.413Z,76.75
2018-04-24T06:08:08.396Z,78.09
2018-04-24T06:09:08.386Z,77.61
2018-04-24T06:10:08.368Z,77.13
2018-04-24T06:11:08.357Z,77.89
2018-04-24T06:12:08.342Z,77.99
2018-04-24T06:13:08.322Z,77.42
2018-04-24T06:14:08.309Z,76.75
2018-04-24T06:15:08.366Z,76.60
2018-04-24T06:16:08.277Z,76.12
2018-04-24T06:17:08.263Z,76.03
2018-04-24T06:18:08.248Z,76.79
2018-04-24T06:19:08.235Z,76.69
2018-04-24T06:20:08.222Z,76.50
2018-04-24T06:21:08.205Z,75.93
2018-04-24T06:22:08.190Z,75.83
2018-04-24T06:23:08.176Z,76.03
2018-04-24T06:24:08.170Z,76.12
2018-04-24T06:25:08.147Z,76.12
2018-04-24T06:26:08.131Z,75.35
2018-04-24T06:27:08.117Z,75.35
2018-04-24T06:28:08.101Z,74.88
2018-04-24T06:29:08.094Z,74.69
2018-04-24T06:30:08.082Z,74.59
2018-04-24T06:31:08.058Z,74.69
2018-04-24T06:32:08.044Z,74.02
2018-04-24T06:33:08.030Z,74.24
2018-04-24T06:34:08.017Z,73.73
2018-04-24T06:35:08.003Z,73.29
2018-04-24T06:36:07.987Z,74.34
2018-04-24T06:37:07.980Z,74.24
2018-04-24T06:38:07.959Z,73.58
2018-04-24T06:39:07.944Z,73.29
2018-04-24T06:40:07.933Z,74.05
2018-04-24T06:41:07.925Z,73.19
2018-04-24T06:42:07.902Z,73.96
2018-04-24T06:43:07.887Z,73.39
2018-04-24T06:44:07.875Z,73.29
2018-04-24T06:45:07.858Z,72.43
2018-04-24T06:46:07.844Z,72.53
2018-04-24T06:47:07.840Z,72.33
2018-04-24T06:48:07.817Z,72.37
2018-04-24T06:49:07.804Z,72.47
2018-04-24T06:50:07.789Z,72.47
2018-04-24T06:51:07.775Z,72.08
2018-04-24T06:52:07.761Z,72.08
2018-04-24T06:53:07.748Z,71.42
2018-04-24T06:54:07.735Z,70.75
2018-04-24T06:55:07.738Z,70.56
2018-04-24T06:56:07.706Z,70.56
2018-04-24T06:57:07.692Z,70.84
2018-04-24T06:58:07.682Z,69.89
2018-04-24T06:59:07.669Z,69.60
2018-04-24T07:00:07.653Z,69.02
2018-04-24T07:01:07.640Z,69.70
2018-04-24T07:02:07.625Z,68.87
2018-04-24T07:03:07.614Z,69.35
2018-04-24T07:04:07.597Z,68.96
2018-04-24T07:05:07.585Z,68.58
2018-04-24T07:06:07.571Z,67.27
2018-04-24T07:07:07.560Z,66.41
2018-04-24T07:08:07.545Z,66.45
2018-04-24T07:09:07.533Z,65.01
2018-04-24T07:10:07.521Z,64.92
2018-04-24T07:11:07.505Z,64.47
2018-04-24T07:12:07.494Z,63.83
2018-04-24T07:13:07.482Z,63.45
2018-04-24T07:14:07.471Z,62.20
2018-04-24T07:15:07.458Z,61.37
2018-04-24T07:16:07.454Z,59.64
2018-04-24T07:17:07.432Z,59.67
2018-04-24T07:18:07.420Z,58.52
2018-04-24T07:19:07.413Z,58.23
2018-04-24T07:20:07.401Z,57.56
2018-04-24T07:21:07.387Z,58.07
2018-04-24T07:22:07.432Z,57.40
2018-04-24T07:23:07.366Z,56.98
2018-04-24T07:24:07.357Z,57.75
2018-04-24T07:25:07.347Z,57.65
2018-04-24T07:26:07.393Z,57.30
2018-04-24T07:27:07.340Z,57.30
2018-04-24T07:28:07.320Z,55.96
2018-04-24T07:29:07.312Z,55.32
2018-04-24T07:30:07.301Z,55.89
2018-04-24T07:31:07.291Z,54.86
2018-04-24T07:32:07.282Z,54.09
2018-04-24T07:33:07.278Z,54.96
2018-04-24T07:34:07.268Z,54.86
2018-04-24T07:35:07.260Z,54.47
2018-04-24T07:36:07.249Z,52.84
2018-04-24T07:37:07.244Z,52.87
2018-04-24T07:38:07.236Z,52.00
2018-04-24T07:39:07.228Z,53.35
2018-04-24T07:40:07.220Z,52.29
2018-04-24T07:41:07.233Z,52.80
2018-04-24T07:42:07.206Z,52.63
2018-04-24T07:43:07.202Z,50.51
2018-04-24T07:44:07.189Z,49.55
2018-04-24T07:45:07.183Z,49.46
2018-04-24T07:46:07.177Z,49.27
2018-04-24T07:47:07.177Z,48.59
2018-04-24T07:48:07.169Z,48.90
2018-04-24T07:49:07.156Z,49.48
2018-04-24T07:50:07.158Z,48.61
2018-04-24T07:51:07.150Z,47.58
2018-04-24T07:52:07.143Z,47.87
2018-04-24T07:53:07.134Z,48.16
2018-04-24T07:54:07.124Z,47.67
2018-04-24T07:55:07.121Z,47.08
2018-04-24T07:56:07.120Z,48.03
2018-04-24T07:57:07.114Z,47.77
2018-04-24T07:58:07.106Z,47.39
2018-04-24T07:59:07.101Z,47.19
2018-04-24T08:00:07.096Z,46.83
2018-04-24T08:01:07.093Z,46.25
2018-04-24T08:02:07.086Z,46.37
2018-04-24T08:03:07.085Z,45.21
2018-04-24T08:04:07.092Z,44.76
2018-04-24T08:05:07.078Z,44.18
2018-04-24T08:06:07.070Z,44.76
2018-04-24T08:07:07.065Z,43.50
2018-04-24T08:08:07.144Z,43.21
2018-04-24T08:09:07.058Z,43.77
2018-04-24T08:10:07.054Z,43.98
2018-04-24T08:11:07.051Z,43.31
2018-04-24T08:12:07.046Z,43.31
2018-04-24T08:13:07.043Z,42.93
2018-04-24T08:14:07.040Z,42.73
2018-04-24T08:15:07.039Z,43.02
2018-04-24T08:16:07.035Z,43.29
2018-04-24T08:17:07.037Z,43.38
2018-04-24T08:18:07.029Z,43.38
2018-04-24T08:19:07.027Z,43.38
2018-04-24T08:20:07.023Z,43.29
2018-04-24T08:21:07.020Z,43.38
2018-04-24T08:22:07.019Z,43.00
2018-04-24T08:23:07.014Z,42.97
2018-04-24T08:24:07.013Z,43.65
2018-04-24T08:25:07.010Z,43.67
2018-04-24T08:26:07.006Z,43.75
2018-04-24T08:27:07.004Z,43.29
2018-04-24T08:28:07.000Z,43.19
2018-04-24T08:29:07.000Z,43.65
2018-04-24T08:30:07.001Z,43.75
2018-04-24T08:31:06.993Z,43.87
2018-04-24T08:32:06.993Z,43.65
2018-04-24T08:33:06.992Z,44.13
2018-04-24T08:34:06.988Z,44.62
2018-04-24T08:35:06.986Z,43.75
2018-04-24T08:36:06.982Z,43.58
2018-04-24T08:37:06.979Z,43.19
2018-04-24T08:38:06.978Z,43.58
2018-04-24T08:39:06.976Z,43.50
2018-04-24T08:40:07.076Z,43.60
2018-04-24T08:41:06.978Z,43.21
2018-04-24T08:42:06.967Z,42.73
2018-04-24T08:43:06.967Z,42.90
2018-04-24T08:44:06.963Z,43.10
2018-04-24T08:45:06.964Z,43.38
2018-04-24T08:46:06.960Z,43.29
2018-04-24T08:47:06.962Z,42.90
2018-04-24T08:48:06.955Z,43.60
2018-04-24T08:49:06.956Z,42.73
2018-04-24T08:50:06.951Z,43.02
2018-04-24T08:51:06.953Z,43.41
2018-04-24T08:52:06.946Z,41.86
2018-04-24T08:53:06.949Z,42.05
2018-04-24T08:54:06.943Z,41.48
2018-04-24T08:55:06.940Z,41.86
2018-04-24T08:56:06.939Z,41.09
2018-04-24T08:57:06.939Z,41.38
2018-04-24T08:58:06.934Z,41.38
2018-04-24T08:59:06.932Z,41.28
2018-04-24T09:00:06.931Z,42.13
2018-04-24T09:01:06.933Z,41.44
2018-04-24T09:02:06.989Z,42.30
2018-04-24T09:03:06.922Z,42.88
2018-04-24T09:04:06.918Z,43.34
2018-04-24T09:05:06.917Z,43.05
2018-04-24T09:06:06.916Z,43.34
2018-04-24T09:07:06.911Z,41.89
2018-04-24T09:08:06.909Z,38.70
2018-04-24T09:09:06.906Z,38.97
2018-04-24T09:10:06.903Z,38.68
2018-04-24T09:11:06.900Z,38.97
2018-04-24T09:12:06.896Z,39.54
2018-04-24T09:13:06.891Z,40.12
2018-04-24T09:14:06.896Z,41.56
2018-04-24T09:15:06.884Z,41.45
2018-04-24T09:16:06.878Z,41.45
2018-04-24T09:17:06.877Z,41.64
2018-04-24T09:18:06.872Z,42.12
2018-04-24T09:19:06.866Z,42.80
2018-04-24T09:20:06.861Z,42.50
2018-04-24T09:21:06.857Z,42.50
2018-04-24T09:22:06.855Z,43.37
2018-04-24T09:23:06.849Z,43.47
2018-04-24T09:24:06.841Z,42.60
2018-04-24T09:25:06.835Z,42.89
2018-04-24T09:26:06.831Z,43.18
2018-04-24T09:27:06.903Z,43.18
2018-04-24T09:28:06.821Z,42.41
2018-04-24T09:29:06.814Z,42.53
2018-04-24T09:30:06.810Z,43.59
2018-04-24T09:31:06.810Z,42.60
2018-04-24T09:32:06.796Z,43.01
2018-04-24T09:33:06.791Z,42.91
2018-04-24T09:34:06.786Z,42.14
2018-04-24T09:35:06.779Z,42.14
2018-04-24T09:36:06.776Z,41.11
2018-04-24T09:37:06.768Z,40.36
2018-04-24T09:38:06.762Z,39.68
2018-04-24T09:39:06.816Z,38.24
2018-04-24T09:40:06.749Z,38.06
2018-04-24T09:41:06.745Z,38.04
2018-04-24T09:42:06.739Z,38.04
2018-04-24T09:43:06.734Z,38.04
2018-04-24T09:44:06.730Z,37.83
2018-04-24T09:45:06.723Z,38.51
2018-04-24T09:46:06.749Z,38.99
2018-04-24T09:47:06.711Z,39.16
2018-04-24T09:48:06.705Z,39.16
2018-04-24T09:49:06.699Z,40.22
2018-04-24T09:50:06.697Z,39.26
2018-04-24T09:51:06.689Z,38.87
2018-04-24T09:52:06.681Z,39.36
2018-04-24T09:53:06.673Z,39.53
2018-04-24T09:54:06.668Z,40.20
2018-04-24T09:55:06.666Z,43.85
2018-04-24T09:56:06.656Z,42.97
2018-04-24T09:57:06.649Z,41.82
2018-04-24T09:58:06.644Z,42.39
2018-04-24T09:59:06.641Z,41.14
2018-04-24T10:00:06.632Z,41.79
2018-04-24T10:01:06.632Z,41.70
2018-04-24T10:02:06.622Z,41.41
2018-04-24T10:03:06.608Z,41.70
2018-04-24T10:04:06.602Z,41.62
2018-04-24T10:05:06.595Z,41.05
2018-04-24T10:06:06.588Z,41.24
2018-04-24T10:07:06.583Z,41.24
2018-04-24T10:08:06.577Z,40.18
2018-04-24T10:09:06.569Z,40.30
2018-04-24T10:10:06.558Z,39.91
2018-04-24T10:11:06.552Z,39.26
2018-04-24T10:12:06.547Z,37.91
2018-04-24T10:13:06.593Z,37.34
2018-04-24T10:14:06.533Z,36.76
2018-04-24T10:15:06.524Z,36.76
2018-04-24T10:16:06.517Z,37.43
2018-04-24T10:17:06.511Z,38.20
2018-04-24T10:18:06.505Z,38.20
2018-04-24T10:19:06.495Z,37.43
2018-04-24T10:20:06.488Z,37.91
2018-04-24T10:21:06.482Z,38.01
2018-04-24T10:22:06.475Z,37.52
2018-04-24T10:23:06.468Z,37.45
2018-04-24T10:24:06.459Z,37.74
2018-04-24T10:25:06.453Z,36.21
2018-04-24T10:26:06.446Z,36.60
2018-04-24T10:27:06.440Z,35.93
2018-04-24T10:28:06.434Z,36.39
2018-04-24T10:29:06.428Z,37.06
2018-04-24T10:30:06.419Z,36.77
2018-04-24T10:31:06.412Z,36.66
2018-04-24T10:32:06.406Z,36.76
2018-04-24T10:33:06.399Z,37.62
2018-04-24T10:34:06.394Z,37.52
2018-04-24T10:35:06.387Z,37.32
2018-04-24T10:36:06.376Z,36.83
2018-04-24T10:37:06.372Z,36.82
2018-04-24T10:38:06.372Z,37.59
2018-04-24T10:39:06.359Z,38.35
2018-04-24T10:40:06.351Z,39.12
2018-04-24T10:41:06.344Z,39.03
2018-04-24T10:42:06.342Z,40.08
2018-04-24T10:43:06.336Z,40.08
2018-04-24T10:44:06.322Z,39.51
2018-04-24T10:45:06.313Z,39.22
2018-04-24T10:46:06.307Z,39.12
2018-04-24T10:47:06.311Z,39.89
2018-04-24T10:48:06.321Z,40.37
2018-04-24T10:49:06.285Z,39.99
2018-04-24T10:50:06.275Z,40.08
2018-04-24T10:51:06.270Z,41.82
2018-04-24T10:52:06.265Z,41.33
2018-04-24T10:53:06.263Z,41.24
2018-04-24T10:54:06.247Z,41.24
2018-04-24T10:55:06.238Z,40.76
2018-04-24T10:56:06.340Z,41.14
2018-04-24T10:57:06.224Z,41.26
2018-04-24T10:58:06.216Z,40.78
2018-04-24T10:59:06.212Z,40.58
2018-04-24T11:00:06.200Z,40.11
2018-04-24T11:01:06.198Z,39.81
2018-04-24T11:02:06.184Z,40.30
2018-04-24T11:03:06.177Z,40.30
2018-04-24T11:04:06.168Z,40.78
2018-04-24T11:05:06.160Z,40.30
2018-04-24T11:06:06.152Z,41.45
2018-04-24T11:07:06.153Z,41.24
2018-04-24T11:08:06.139Z,41.33
2018-04-24T11:09:06.132Z,41.72
2018-04-24T11:10:06.121Z,42.00
2018-04-24T11:11:06.116Z,42.00
2018-04-24T11:12:06.105Z,42.49
2018-04-24T11:13:06.102Z,42.58
2018-04-24T11:14:06.087Z,43.07
2018-04-24T11:15:06.082Z,43.26
2018-04-24T11:16:06.077Z,43.26
2018-04-24T11:17:06.096Z,43.54
2018-04-24T11:18:06.056Z,44.12
2018-04-24T11:19:06.050Z,44.02
2018-04-24T11:20:06.041Z,43.84
2018-04-24T11:21:06.032Z,44.22
2018-04-24T11:22:06.025Z,44.02
2018-04-24T11:23:06.020Z,44.58
2018-04-24T11:24:06.007Z,44.96
2018-04-24T11:25:06.000Z,45.64
2018-04-24T11:26:05.992Z,46.50
2018-04-24T11:27:05.988Z,46.59
2018-04-24T11:28:05.975Z,46.21
2018-04-24T11:29:05.969Z,46.19
2018-04-24T11:30:05.965Z,46.48
2018-04-24T11:31:05.951Z,47.44
2018-04-24T11:32:05.943Z,48.49
2018-04-24T11:33:05.937Z,47.92
2018-04-24T11:34:05.999Z,48.40
2018-04-24T11:35:05.921Z,49.84
2018-04-24T11:36:05.909Z,50.23
2018-04-24T11:37:05.896Z,50.61
2018-04-24T11:38:05.890Z,51.67
2018-04-24T11:39:05.880Z,50.49
2018-04-24T11:40:05.871Z,49.91
2018-04-24T11:41:05.862Z,50.10
2018-04-24T11:42:05.853Z,50.49
2018-04-24T11:43:05.845Z,51.25
2018-04-24T11:44:05.843Z,51.64
2018-04-24T11:45:05.902Z,50.96
2018-04-24T11:46:05.815Z,50.49
2018-04-24T11:47:05.807Z,50.29
2018-04-24T11:48:05.796Z,50.39
2018-04-24T11:49:05.786Z,51.64
2018-04-24T11:50:05.780Z,50.39
2018-04-24T11:51:05.778Z,50.39
2018-04-24T11:52:05.757Z,51.28
2018-04-24T11:53:05.748Z,50.23
2018-04-24T11:54:05.744Z,50.61
2018-04-24T11:55:05.729Z,50.13
2018-04-24T11:56:05.720Z,50.42
2018-04-24T11:57:05.733Z,51.57
2018-04-24T11:58:05.700Z,51.47
2018-04-24T11:59:05.696Z,50.63
2018-04-24T12:00:05.705Z,50.82
2018-04-24T12:01:05.676Z,50.63
2018-04-24T12:02:05.662Z,50.15
2018-04-24T12:03:05.653Z,50.54
2018-04-24T12:04:05.688Z,50.92
2018-04-24T12:05:05.635Z,50.15
2018-04-24T12:06:05.630Z,50.76
2018-04-24T12:07:05.615Z,49.60
2018-04-24T12:08:05.607Z,49.51
2018-04-24T12:09:05.597Z,49.02
2018-04-24T12:10:05.696Z,49.22
2018-04-24T12:11:05.580Z,49.31
2018-04-24T12:12:05.573Z,49.12
2018-04-24T12:13:05.565Z,50.76
2018-04-24T12:14:05.554Z,49.41
2018-04-24T12:15:05.547Z,49.79
2018-04-24T12:16:05.547Z,49.12
2018-04-24T12:17:05.533Z,49.51
2018-04-24T12:18:05.520Z,50.85
2018-04-24T12:19:05.507Z,51.31
2018-04-24T12:20:05.509Z,52.36
2018-04-24T12:21:05.489Z,52.55
2018-04-24T12:22:05.483Z,52.36
2018-04-24T12:23:05.473Z,51.88
2018-04-24T12:24:05.463Z,52.65
2018-04-24T12:25:05.503Z,52.65
2018-04-24T12:26:05.447Z,52.75
2018-04-24T12:27:05.436Z,51.40
2018-04-24T12:28:05.426Z,52.08
2018-04-24T12:29:05.417Z,52.55
2018-04-24T12:30:05.415Z,51.79
2018-04-24T12:31:05.412Z,51.88
2018-04-24T12:32:05.388Z,51.98
2018-04-24T12:33:05.385Z,51.59
2018-04-24T12:34:05.372Z,51.31
2018-04-24T12:35:05.362Z,52.36
2018-04-24T12:36:05.353Z,52.36
2018-04-24T12:37:05.343Z,52.65
2018-04-24T12:38:05.335Z,52.55
2018-04-24T12:39:05.327Z,53.20
2018-04-24T12:40:05.320Z,53.52
2018-04-24T12:41:05.309Z,54.16
2018-04-24T12:42:05.301Z,54.06
2018-04-24T12:43:05.297Z,53.58
2018-04-24T12:44:05.285Z,53.68
2018-04-24T12:45:05.274Z,54.25
2018-04-24T12:46:05.273Z,54.52
2018-04-24T12:47:05.253Z,55.47
2018-04-24T12:48:05.244Z,55.77
2018-04-24T12:49:05.236Z,55.57
2018-04-24T12:50:05.225Z,55.57
2018-04-24T12:51:05.215Z,55.96
2018-04-24T12:52:05.211Z,54.23
2018-04-24T12:53:05.193Z,53.56